Time;durP1;ratioP1;P1;durP2;ratioP2;P2;SDS_P1;SDS_P2;PMS_P1;PMS_P2;Temp;Humidity;BMP_temperature;BMP_pressure;BME280_temperature;BME280_humidity;BME280_pressure;Samples;Min_cycle;Max_cycle;Signal;HPM_P1;HPM_P2
2022/08/20 00:01:15;;;;;;;0.40;0.40;;;22.00;65.10;;;22.48;50.84;94588.56;4999025;28;20227;-78
2022/08/20 00:03:43;;;;;;;0.40;0.40;;;22.00;65.10;;;22.46;51.33;94594.19;4997882;28;20798;-77
2022/08/20 00:06:22;;;;;;;0.30;0.30;;;22.00;65.60;;;22.44;51.33;94604.34;5007946;28;20966;-77
2022/08/20 00:08:49;;;;;;;0.30;0.30;;;22.00;66.00;;;22.43;51.58;94607.28;5002457;28;20202;-78
2022/08/20 00:11:23;;;;;;;0.40;0.40;;;22.00;66.10;;;22.41;51.60;94609.44;4988345;28;20238;-78
2022/08/20 00:13:56;;;;;;;0.50;0.50;;;22.00;66.10;;;22.39;51.97;94607.81;5001843;28;20222;-78
2022/08/20 00:16:31;;;;;;;0.40;0.40;;;22.00;66.40;;;22.40;51.62;94611.31;4985916;28;20344;-78
2022/08/20 00:19:01;;;;;;;0.40;0.40;;;22.00;66.30;;;22.39;51.79;94609.72;5016263;28;20208;-78
2022/08/20 00:21:28;;;;;;;0.40;0.40;;;22.00;66.40;;;22.36;52.30;94603.00;5011617;28;20231;-77
2022/08/20 00:23:58;;;;;;;0.30;0.30;;;22.00;66.30;;;22.31;52.22;94602.22;5015209;28;20272;-78
2022/08/20 00:26:25;;;;;;;0.40;0.40;;;21.90;66.40;;;22.31;52.19;94605.69;5032672;28;20218;-78
2022/08/20 00:28:53;;;;;;;0.38;0.38;;;21.90;66.50;;;22.28;52.51;94618.81;5027506;28;20210;-78
2022/08/20 00:31:22;;;;;;;0.40;0.40;;;21.90;66.70;;;22.26;52.42;94629.75;4995341;28;20321;-78
2022/08/20 00:33:52;;;;;;;0.45;0.45;;;21.90;66.80;;;22.25;52.74;94627.38;5027111;28;20281;-79
2022/08/20 00:36:20;;;;;;;0.40;0.40;;;21.90;66.80;;;22.22;52.64;94621.47;4996110;28;20232;-78
2022/08/20 00:38:58;;;;;;;0.32;0.32;;;21.80;66.80;;;22.23;52.64;94625.75;5012608;28;20227;-78
2022/08/20 00:41:29;;;;;;;0.38;0.38;;;21.80;66.70;;;22.25;52.43;94617.47;5003580;28;20226;-78
2022/08/20 00:44:02;;;;;;;0.40;0.40;;;21.80;67.10;;;22.24;53.14;94615.88;5012885;28;20243;-78
2022/08/20 00:46:31;;;;;;;0.40;0.40;;;21.90;67.40;;;22.20;52.93;94612.97;5015619;28;20217;-78
2022/08/20 00:49:04;;;;;;;0.40;0.40;;;21.80;67.00;;;22.22;52.87;94618.03;4995079;28;20203;-78
2022/08/20 00:51:40;;;;;;;0.40;0.40;;;21.80;67.10;;;22.21;52.99;94611.88;5012636;28;20235;-78
2022/08/20 00:54:23;;;;;;;0.30;0.30;;;21.80;67.50;;;22.21;52.52;94611.09;5017999;28;20202;-78
2022/08/20 00:57:06;;;;;;;0.35;0.35;;;21.80;67.60;;;22.21;52.56;94619.09;5005797;28;20214;-78
2022/08/20 00:59:39;;;;;;;0.30;0.30;;;21.80;67.50;;;22.21;53.21;94616.41;5024836;28;20194;-80
2022/08/20 01:02:13;;;;;;;0.30;0.30;;;21.80;67.60;;;22.19;53.46;94605.19;5030912;28;20305;-78
2022/08/20 01:05:02;;;;;;;0.35;0.35;;;21.70;67.60;;;22.15;53.25;94612.16;4993244;28;20198;-78
2022/08/20 01:07:33;;;;;;;0.40;0.40;;;21.80;67.50;;;22.15;53.18;94609.50;5005366;28;20222;-78
2022/08/20 01:10:09;;;;;;;0.40;0.40;;;21.70;67.40;;;22.13;53.48;94609.78;4992838;28;20236;-77
2022/08/20 01:12:39;;;;;;;0.35;0.35;;;21.70;67.60;;;22.11;53.53;94600.44;5005525;28;20233;-78
2022/08/20 01:15:12;;;;;;;0.30;0.30;;;21.70;67.50;;;22.11;53.22;94600.44;4998064;28;20224;-78
2022/08/20 01:17:45;;;;;;;0.35;0.35;;;21.70;67.80;;;22.07;53.26;94592.16;4979586;28;20221;-78
2022/08/20 01:20:21;;;;;;;0.30;0.30;;;21.70;68.00;;;22.06;53.92;94606.59;5010858;28;20233;-78
2022/08/20 01:23:28;;;;;;;0.40;0.40;;;21.70;68.60;;;22.00;53.39;94603.13;5021515;28;20217;-78
2022/08/20 01:26:04;;;;;;;0.30;0.30;;;21.60;68.20;;;21.98;53.97;94602.59;5003318;28;20222;-78
2022/08/20 01:28:51;;;;;;;0.30;0.30;;;21.60;68.40;;;21.94;54.00;94598.09;5013560;28;20202;-78
2022/08/20 01:31:27;;;;;;;0.40;0.40;;;21.60;68.50;;;21.94;53.81;94598.88;5012240;28;20596;-78
2022/08/20 01:33:57;;;;;;;0.40;0.40;;;21.60;68.60;;;21.93;54.11;94599.16;5022866;28;20198;-78
2022/08/20 01:36:35;;;;;;;0.30;0.30;;;21.50;68.30;;;21.88;53.78;94586.63;5011466;28;20270;-78
2022/08/20 01:39:06;;;;;;;0.40;0.40;;;21.50;68.40;;;21.89;54.16;94593.56;5012057;28;20261;-78
2022/08/20 01:41:57;;;;;;;0.35;0.35;;;21.50;68.50;;;21.87;54.18;94591.16;5031263;28;20696;-78
2022/08/20 01:44:26;;;;;;;0.40;0.40;;;21.50;68.40;;;21.83;53.92;94590.09;5014321;28;20236;-78
2022/08/20 01:46:54;;;;;;;0.40;0.40;;;21.40;68.30;;;21.80;54.24;94582.63;5005868;28;20259;-78
2022/08/20 01:49:33;;;;;;;0.40;0.40;;;21.40;68.50;;;21.74;54.68;94581.84;5003381;28;20208;-78
2022/08/20 01:52:06;;;;;;;0.40;0.40;;;21.40;68.80;;;21.72;54.21;94577.84;5007120;28;20296;-77
2022/08/20 01:54:35;;;;;;;0.40;0.40;;;21.40;68.60;;;21.67;54.37;94586.66;4994468;28;20731;-78
2022/08/20 01:57:25;;;;;;;0.40;0.40;;;21.30;68.50;;;21.60;54.81;94580.78;4978118;28;20215;-78
2022/08/20 01:59:54;;;;;;;0.30;0.30;;;21.30;69.20;;;21.56;54.53;94577.84;5028154;28;20667;-80
2022/08/20 02:02:23;;;;;;;0.30;0.30;;;21.20;68.50;;;21.53;54.24;94581.06;5012631;28;20228;-78
2022/08/20 02:04:50;;;;;;;0.40;0.40;;;21.20;68.60;;;21.49;55.38;94581.84;5020241;28;20678;-78
2022/08/20 02:07:22;;;;;;;0.40;0.40;;;21.20;69.10;;;21.42;55.99;94590.94;5009669;28;20220;-78
2022/08/20 02:09:50;;;;;;;0.40;0.40;;;21.10;69.30;;;21.39;55.24;94594.13;4999505;28;20204;-78
2022/08/20 02:12:18;;;;;;;0.40;0.40;;;21.10;69.20;;;21.37;55.02;94590.94;5010363;28;20225;-78
2022/08/20 02:14:50;;;;;;;0.40;0.40;;;21.10;69.20;;;21.36;55.67;94593.84;4994870;28;20218;-78
2022/08/20 02:17:21;;;;;;;0.40;0.40;;;21.10;69.80;;;21.34;55.71;94585.34;5007492;28;20230;-79
2022/08/20 02:20:09;;;;;;;0.40;0.40;;;21.00;69.60;;;21.35;56.04;94598.41;4993487;28;20201;-78
2022/08/20 02:22:57;;;;;;;0.40;0.40;;;21.00;70.00;;;21.34;55.94;94594.13;5010485;28;20235;-78
2022/08/20 02:25:29;;;;;;;0.30;0.30;;;21.00;69.70;;;21.35;55.42;94589.59;4995788;28;20192;-78
2022/08/20 02:28:00;;;;;;;0.40;0.40;;;21.00;69.80;;;21.27;55.81;94578.38;5020815;28;20208;-78
2022/08/20 02:30:34;;;;;;;0.30;0.30;;;20.90;69.70;;;21.35;56.33;94589.59;5002733;28;20201;-78
2022/08/20 02:33:05;;;;;;;0.40;0.40;;;21.00;70.50;;;21.31;56.51;94591.97;4997903;28;20224;-78
2022/08/20 02:35:33;;;;;;;0.40;0.40;;;20.90;70.10;;;21.30;56.03;94587.75;5031285;28;20208;-78
2022/08/20 02:38:01;;;;;;;0.47;0.47;;;20.90;70.00;;;21.31;56.02;94591.97;5032639;28;20192;-78
2022/08/20 02:40:30;;;;;;;0.40;0.40;;;21.00;70.10;;;21.33;56.69;94581.84;5016047;28;20212;-78
2022/08/20 02:42:59;;;;;;;0.30;0.30;;;21.00;70.10;;;21.34;56.89;94582.66;5015697;28;20224;-78
2022/08/20 02:45:30;;;;;;;0.30;0.30;;;21.00;70.20;;;21.35;56.11;94573.56;5014163;28;20205;-78
2022/08/20 02:47:57;;;;;;;0.40;0.40;;;21.00;70.20;;;21.28;56.00;94573.88;5027251;28;20284;-78
2022/08/20 02:50:26;;;;;;;0.40;0.40;;;21.00;70.10;;;21.34;56.20;94585.34;5016187;28;20246;-77
2022/08/20 02:52:54;;;;;;;0.40;0.40;;;21.00;70.10;;;21.32;56.10;94579.47;5011368;28;20255;-78
2022/08/20 02:55:22;;;;;;;0.30;0.30;;;21.00;70.00;;;21.28;55.90;94576.53;5006818;28;20211;-78
2022/08/20 02:57:57;;;;;;;0.50;0.50;;;20.90;69.90;;;21.25;56.06;94579.72;5012722;28;20315;-78
2022/08/20 03:00:27;;;;;;;0.40;0.40;;;20.90;70.00;;;21.21;56.07;94576.78;4995384;28;20678;-78
2022/08/20 03:02:59;;;;;;;0.30;0.30;;;20.90;70.00;;;21.19;56.27;94584.28;4981467;28;20706;-78
2022/08/20 03:05:27;;;;;;;0.40;0.40;;;20.80;70.10;;;21.14;56.81;94578.94;5009427;28;20227;-78
2022/08/20 03:07:57;;;;;;;0.30;0.30;;;20.80;70.20;;;21.11;56.55;94574.91;4997182;28;20232;-78
2022/08/20 03:10:30;;;;;;;0.38;0.38;;;20.80;70.20;;;21.07;57.06;94578.41;5012091;28;20284;-78
2022/08/20 03:13:01;;;;;;;0.40;0.40;;;20.70;70.40;;;21.04;56.50;94577.03;4997957;28;20243;-77
2022/08/20 03:15:31;;;;;;;0.40;0.40;;;20.70;70.20;;;21.03;56.74;94577.31;5028910;28;20287;-78
2022/08/20 03:17:59;;;;;;;0.50;0.50;;;20.70;70.40;;;20.97;56.85;94576.53;5013685;28;20235;-78
2022/08/20 03:20:27;;;;;;;0.40;0.40;;;20.70;70.50;;;20.97;57.13;94571.19;5014828;28;20196;-78
2022/08/20 03:22:54;;;;;;;0.40;0.40;;;20.60;70.40;;;20.93;56.93;94565.59;5032889;28;20235;-78
2022/08/20 03:25:22;;;;;;;0.40;0.40;;;20.60;71.50;;;20.91;57.66;94565.06;5032021;28;20207;-79
2022/08/20 03:27:53;;;;;;;0.40;0.40;;;20.60;70.60;;;20.85;57.88;94570.63;5028603;28;20233;-78
2022/08/20 03:30:24;;;;;;;0.40;0.40;;;20.60;70.70;;;20.85;57.54;94567.97;5022545;28;20309;-79
2022/08/20 03:32:52;;;;;;;0.40;0.40;;;20.60;70.80;;;20.82;58.09;94574.63;5021776;28;20232;-79
2022/08/20 03:35:24;;;;;;;0.40;0.40;;;20.60;70.90;;;20.81;57.35;94569.56;5010556;28;20192;-78
2022/08/20 03:37:52;;;;;;;0.40;0.40;;;20.50;70.70;;;20.78;57.07;94576.22;5030150;28;20732;-78
2022/08/20 03:40:32;;;;;;;0.40;0.40;;;20.50;70.80;;;20.74;58.14;94578.63;5029790;28;20223;-78
2022/08/20 03:43:00;;;;;;;0.43;0.43;;;20.50;71.00;;;20.74;58.82;94572.50;5027528;28;20201;-78
2022/08/20 03:45:28;;;;;;;0.30;0.30;;;20.50;71.20;;;20.74;58.47;94575.97;5004542;28;20682;-79
2022/08/20 03:47:56;;;;;;;0.40;0.40;;;20.50;71.10;;;20.70;58.11;94568.72;5022625;28;20229;-78
2022/08/20 03:50:27;;;;;;;0.40;0.40;;;20.50;71.10;;;20.73;58.12;94566.34;5010903;28;20667;-78
2022/08/20 03:52:56;;;;;;;0.40;0.40;;;20.50;71.30;;;20.72;58.01;94566.63;4996458;28;20231;-78
2022/08/20 03:55:25;;;;;;;0.40;0.40;;;20.40;71.00;;;20.69;58.12;94561.78;5014111;28;20667;-78
2022/08/20 03:58:00;;;;;;;0.45;0.45;;;20.40;71.10;;;20.68;58.08;94563.66;5018514;28;20255;-78
2022/08/20 04:00:35;;;;;;;0.43;0.43;;;20.40;71.20;;;20.65;57.93;94566.84;5003594;28;20196;-78
2022/08/20 04:03:05;;;;;;;0.40;0.40;;;20.40;71.30;;;20.61;57.53;94566.56;5023159;28;20209;-79
2022/08/20 04:05:33;;;;;;;0.40;0.40;;;20.40;71.30;;;20.63;57.37;94575.09;4981978;28;20197;-79
2022/08/20 04:08:01;;;;;;;0.40;0.40;;;20.30;71.10;;;20.60;58.48;94575.66;5032224;28;20283;-79
2022/08/20 04:10:31;;;;;;;0.40;0.40;;;20.30;71.40;;;20.60;58.10;94577.50;4996214;28;20200;-78
2022/08/20 04:12:59;;;;;;;0.40;0.40;;;20.30;71.30;;;20.59;58.15;94581.22;5010029;28;20231;-78
2022/08/20 04:15:27;;;;;;;0.40;0.40;;;20.30;71.40;;;20.57;57.86;94586.81;5006383;28;20200;-78
2022/08/20 04:17:54;;;;;;;0.40;0.40;;;20.30;71.30;;;20.55;58.20;94590.81;4999805;28;20217;-78
2022/08/20 04:20:24;;;;;;;0.40;0.40;;;20.30;71.40;;;20.53;57.97;94590.25;5038847;28;20200;-78
2022/08/20 04:22:54;;;;;;;0.50;0.50;;;20.20;71.50;;;20.52;57.77;94605.47;4996419;28;20220;-78
2022/08/20 04:25:28;;;;;;;0.38;0.38;;;20.20;72.20;;;20.47;57.90;94598.25;5012970;28;20212;-78
2022/08/20 04:27:57;;;;;;;0.50;0.50;;;20.20;71.50;;;20.47;57.64;94600.91;4997393;28;20691;-79
2022/08/20 04:30:25;;;;;;;0.40;0.40;;;20.20;71.50;;;20.48;57.89;94594.53;5012375;28;20194;-78
2022/08/20 04:32:54;;;;;;;0.40;0.40;;;20.20;72.50;;;20.45;58.25;94592.38;5017829;28;20223;-78
2022/08/20 04:35:23;;;;;;;0.40;0.40;;;20.20;71.60;;;20.42;58.25;94584.91;5025648;28;20197;-78
2022/08/20 04:38:03;;;;;;;0.40;0.40;;;20.10;71.50;;;20.40;58.04;94588.91;4981887;28;20299;-77
2022/08/20 04:43:18;;;;;;;0.45;0.45;;;20.10;71.70;;;20.26;59.03;94578.75;5012233;28;20207;-78
2022/08/20 04:45:46;;;;;;;0.40;0.40;;;20.10;71.70;;;20.29;58.05;94580.09;5022015;28;20227;-79
2022/08/20 04:48:14;;;;;;;0.40;0.40;;;20.10;71.70;;;20.24;58.78;94574.75;5014788;28;20311;-79
2022/08/20 04:50:45;;;;;;;0.50;0.50;;;20.10;71.80;;;20.23;58.65;94573.13;5008082;28;20207;-78
2022/08/20 04:53:16;;;;;;;0.30;0.30;;;20.00;72.10;;;20.21;59.43;94576.03;4989363;28;20645;-80
2022/08/20 04:55:51;;;;;;;0.40;0.40;;;20.00;72.20;;;20.17;59.43;94574.97;4996801;28;20573;-79
2022/08/20 04:58:24;;;;;;;0.30;0.30;;;20.00;72.30;;;20.15;59.78;94571.75;5014472;28;20298;-79
2022/08/20 05:00:56;;;;;;;0.65;0.65;;;20.00;72.80;;;20.15;59.70;94585.06;5014071;28;20227;-78
2022/08/20 05:03:28;;;;;;;0.50;0.50;;;20.00;72.70;;;20.13;59.88;94590.66;5004150;28;20196;-80
2022/08/20 05:05:56;;;;;;;0.40;0.40;;;19.90;72.80;;;20.16;59.71;94589.34;5013497;28;20250;-80
2022/08/20 05:08:24;;;;;;;0.40;0.40;;;19.90;72.90;;;20.17;60.38;94598.94;5033008;28;20278;-79
2022/08/20 05:10:53;;;;;;;0.40;0.40;;;19.90;73.20;;;20.21;60.43;94589.34;4987504;28;20595;-79
2022/08/20 05:13:41;;;;;;;0.40;0.40;;;20.00;73.60;;;20.29;60.24;94594.19;5011941;28;20741;-79
2022/08/20 05:16:09;;;;;;;0.50;0.50;;;20.00;73.60;;;20.38;60.68;94591.81;4989504;28;20724;-80
2022/08/20 05:18:36;;;;;;;0.40;0.40;;;20.10;73.90;;;20.50;60.95;94593.47;5025645;28;20246;-78
2022/08/20 05:21:06;;;;;;;0.40;0.40;;;20.20;73.80;;;20.55;61.10;94588.16;5009152;28;20275;-78
2022/08/20 05:23:41;;;;;;;0.40;0.40;;;20.30;73.80;;;20.64;61.02;94594.56;5018207;28;20699;-80
2022/08/20 05:26:10;;;;;;;0.40;0.40;;;20.40;73.90;;;20.72;60.45;94591.41;4987155;28;20756;-79
2022/08/20 05:28:39;;;;;;;0.43;0.43;;;20.50;74.00;;;20.83;60.22;94591.44;4993532;28;20201;-78
2022/08/20 05:31:29;;;;;;;0.40;0.40;;;20.60;73.90;;;20.95;60.54;94598.09;5018048;28;20307;-78
2022/08/20 05:34:10;;;;;;;0.32;0.32;;;20.70;73.80;;;21.07;59.81;94594.41;5011699;28;20208;-78
2022/08/20 05:36:42;;;;;;;0.40;0.40;;;20.80;73.60;;;21.19;59.94;94589.59;5014103;28;20301;-78
2022/08/20 05:39:10;;;;;;;0.40;0.40;;;20.80;73.50;;;21.26;59.89;94582.13;5009449;28;20212;-78
2022/08/20 05:41:38;;;;;;;0.40;0.40;;;20.90;73.40;;;21.36;59.61;94583.19;5003721;28;20206;-78
2022/08/20 05:44:12;;;;;;;0.30;0.30;;;21.00;73.30;;;21.47;60.00;94584.78;5013390;28;20611;-78
2022/08/20 05:46:42;;;;;;;0.50;0.50;;;21.10;73.20;;;21.57;59.34;94584.81;4996291;28;20300;-78
2022/08/20 05:49:14;;;;;;;0.40;0.40;;;21.20;73.10;;;21.66;59.17;94590.38;5010048;28;20280;-78
2022/08/20 05:51:42;;;;;;;0.40;0.40;;;21.30;72.90;;;21.75;59.12;94588.78;5012933;28;20302;-78
2022/08/20 05:54:10;;;;;;;0.40;0.40;;;21.40;72.80;;;21.86;59.10;94600.25;5003816;28;20703;-79
2022/08/20 05:56:38;;;;;;;0.43;0.43;;;21.50;72.60;;;21.95;58.93;94600.47;4997844;28;20660;-79
2022/08/20 05:59:08;;;;;;;0.40;0.40;;;21.60;72.60;;;22.04;58.73;94601.50;5018227;28;20201;-78
2022/08/20 06:01:38;;;;;;;0.30;0.30;;;21.70;72.40;;;22.15;58.79;94598.81;4998086;28;20217;-79
2022/08/20 06:04:23;;;;;;;0.40;0.40;;;21.80;72.40;;;22.22;58.29;94597.44;5026546;28;20203;-78
2022/08/20 06:07:04;;;;;;;0.32;0.32;;;21.90;72.30;;;22.30;58.07;94601.44;5026187;28;20213;-78
2022/08/20 06:09:35;;;;;;;0.38;0.38;;;22.00;72.00;;;22.38;57.88;94613.44;5012234;28;20189;-79
2022/08/20 06:12:07;;;;;;;0.30;0.30;;;22.10;72.00;;;22.44;58.13;94620.38;5017519;28;20238;-78
2022/08/20 06:14:35;;;;;;;0.30;0.30;;;22.20;71.80;;;22.47;57.99;94622.50;4993734;28;20280;-78
2022/08/20 06:17:12;;;;;;;0.40;0.40;;;22.20;71.60;;;22.52;57.79;94625.16;5015793;28;20619;-78
2022/08/20 06:19:43;;;;;;;0.30;0.30;;;22.30;71.40;;;22.54;57.22;94638.22;5023305;28;20487;-78
2022/08/20 06:22:12;;;;;;;0.40;0.40;;;22.30;71.20;;;22.57;56.93;94642.22;4992997;28;20266;-78
2022/08/20 06:24:48;;;;;;;0.40;0.40;;;22.30;71.10;;;22.55;57.43;94640.63;5010741;28;20200;-77
2022/08/20 06:27:16;;;;;;;0.40;0.40;;;22.40;71.10;;;22.60;57.64;94644.38;5021106;28;20328;-79
2022/08/20 06:29:43;;;;;;;0.40;0.40;;;22.40;71.10;;;22.63;57.25;94647.28;5017276;28;20203;-77
2022/08/20 06:32:10;;;;;;;0.43;0.43;;;22.40;70.90;;;22.66;56.94;94640.59;4990805;28;20212;-78
2022/08/20 06:34:37;;;;;;;0.40;0.40;;;22.40;70.90;;;22.67;57.39;94632.28;5021245;28;20609;-77
2022/08/20 06:37:25;;;;;;;0.30;0.30;;;22.50;71.00;;;22.73;57.29;94642.94;5014649;28;20210;-78
2022/08/20 06:40:06;;;;;;;0.32;0.32;;;22.50;71.00;;;22.79;57.06;94640.00;5038140;28;20201;-79
2022/08/20 06:42:33;;;;;;;0.47;0.47;;;22.50;70.90;;;22.86;57.17;94648.50;5007009;28;20314;-78
2022/08/20 06:45:03;;;;;;;0.30;0.30;;;22.60;70.90;;;22.89;56.77;94644.47;5022041;28;20220;-78
2022/08/20 06:47:31;;;;;;;0.40;0.40;;;22.70;70.80;;;22.93;56.74;94642.84;5005853;28;20694;-78
2022/08/20 06:49:59;;;;;;;0.30;0.30;;;22.70;70.70;;;23.02;56.86;94638.53;5012690;28;20195;-79
2022/08/20 06:52:26;;;;;;;0.40;0.40;;;22.80;70.70;;;23.08;56.91;94646.50;5003308;28;20219;-77
2022/08/20 06:55:15;;;;;;;0.47;0.47;;;22.90;70.70;;;23.17;56.61;94639.53;4995445;28;20188;-78
2022/08/20 06:57:43;;;;;;;0.60;0.60;;;22.90;70.60;;;23.22;56.30;94652.88;5010161;28;20527;-77
2022/08/20 07:00:18;;;;;;;0.30;0.30;;;23.00;71.40;;;23.25;56.65;94646.16;5029661;28;20250;-78
2022/08/20 07:02:46;;;;;;;0.30;0.30;;;23.10;70.20;;;23.32;56.37;94654.66;5031114;28;20681;-78
2022/08/20 07:05:15;;;;;;;0.30;0.30;;;23.20;70.30;;;23.34;56.48;94672.03;5006940;28;20200;-80
2022/08/20 07:07:48;;;;;;;0.40;0.40;;;23.30;70.20;;;23.40;56.51;94662.13;5021954;28;20244;-79
2022/08/20 07:10:19;;;;;;;0.30;0.30;;;23.30;70.10;;;23.45;56.85;94654.03;5010488;28;20231;-79
2022/08/20 07:12:49;;;;;;;0.50;0.50;;;23.40;70.20;;;23.56;56.42;94657.44;5027199;28;20220;-79
2022/08/20 07:15:19;;;;;;;0.30;0.30;;;23.50;70.20;;;23.61;56.27;94657.38;5009082;28;20189;-80
2022/08/20 07:17:57;;;;;;;0.30;0.30;;;23.60;70.10;;;23.67;56.10;94658.94;5024206;28;20241;-80
2022/08/20 07:20:29;;;;;;;0.30;0.30;;;23.60;69.70;;;23.67;55.82;94666.19;5013056;28;20205;-79
2022/08/20 07:22:56;;;;;;;0.30;0.30;;;23.70;69.60;;;23.65;55.89;94671.81;5013434;28;20224;-80
2022/08/20 07:25:24;;;;;;;0.30;0.30;;;23.80;69.60;;;23.66;56.08;94670.72;5033253;28;20242;-79
2022/08/20 07:27:51;;;;;;;0.50;0.50;;;23.70;69.60;;;23.67;56.15;94672.31;5011597;28;20220;-79
2022/08/20 07:33:26;;;;;;;0.30;0.30;;;23.70;69.70;;;23.75;56.35;94678.16;5009666;28;20283;-79
2022/08/20 07:35:57;;;;;;;0.28;0.28;;;23.70;69.80;;;23.82;56.29;94689.34;5017542;28;20225;-79
2022/08/20 07:38:27;;;;;;;0.30;0.30;;;23.70;69.90;;;23.85;56.12;94685.31;5023160;28;20636;-79
2022/08/20 07:40:59;;;;;;;0.30;0.30;;;23.70;70.00;;;23.88;56.07;94685.53;5029499;28;20262;-79
2022/08/20 07:43:28;;;;;;;0.30;0.30;;;23.80;70.80;;;23.82;56.10;94690.13;5030175;28;20188;-79
2022/08/20 07:46:00;;;;;;;0.40;0.40;;;23.80;69.80;;;23.75;56.26;94691.56;5030915;28;20217;-78
2022/08/20 07:48:29;;;;;;;0.35;0.35;;;23.70;70.80;;;23.69;56.32;94701.50;5015594;28;20242;-79
2022/08/20 07:51:03;;;;;;;0.40;0.40;;;23.70;70.00;;;23.54;56.74;94691.72;4994822;28;20308;-79
2022/08/20 07:53:33;;;;;;;0.30;0.30;;;23.60;70.10;;;23.32;56.84;94684.91;4997560;28;20290;-79
2022/08/20 07:56:09;;;;;;;0.30;0.30;;;23.50;70.50;;;23.18;57.87;94698.09;5029195;28;20705;-79
2022/08/20 07:58:48;;;;;;;0.40;0.40;;;23.30;71.00;;;22.99;58.58;94707.81;5024717;28;20223;-79
2022/08/20 08:01:21;;;;;;;0.35;0.35;;;23.20;71.20;;;22.81;58.82;94702.03;5017605;28;20797;-79
2022/08/20 08:03:49;;;;;;;0.40;0.40;;;23.00;71.40;;;22.67;59.73;94699.13;5017053;28;20226;-80
2022/08/20 08:06:22;;;;;;;0.40;0.40;;;22.90;71.80;;;22.57;60.51;94701.84;5011733;28;20289;-80
2022/08/20 08:09:02;;;;;;;0.30;0.30;;;22.80;72.50;;;22.45;60.60;94696.81;4993155;28;20211;-79
2022/08/20 08:11:34;;;;;;;0.35;0.35;;;22.70;72.70;;;22.37;61.53;94697.31;5007002;28;20231;-79
2022/08/20 08:14:04;;;;;;;0.40;0.40;;;22.60;72.90;;;22.35;60.88;94702.13;5008760;28;20288;-79
2022/08/20 08:16:33;;;;;;;0.30;0.30;;;22.50;73.20;;;22.26;60.60;94690.41;5027496;28;20322;-79
2022/08/20 08:19:00;;;;;;;0.30;0.30;;;22.40;73.10;;;22.28;60.51;94697.09;5028622;28;20203;-79
2022/08/20 08:21:30;;;;;;;0.30;0.30;;;22.40;73.30;;;22.27;60.78;94695.47;5010727;28;20256;-78
2022/08/20 08:23:57;;;;;;;0.40;0.40;;;22.30;73.60;;;22.27;60.76;94692.03;5021320;28;20197;-79
2022/08/20 08:26:27;;;;;;;0.40;0.40;;;22.20;73.50;;;22.28;61.18;94693.63;5017749;28;20229;-79
2022/08/20 08:28:56;;;;;;;0.40;0.40;;;22.20;73.60;;;22.29;60.60;94685.34;5010286;28;20207;-80
2022/08/20 08:31:24;;;;;;;0.30;0.30;;;22.20;73.70;;;22.37;60.46;94700.81;4980824;28;20231;-79
2022/08/20 08:33:51;;;;;;;0.40;0.40;;;22.20;74.00;;;22.45;61.00;94707.50;5009329;28;20209;-79
2022/08/20 08:36:19;;;;;;;0.32;0.32;;;22.30;74.10;;;22.43;62.16;94712.31;5011681;28;20223;-79
2022/08/20 08:38:46;;;;;;;0.40;0.40;;;22.30;74.40;;;22.35;61.76;94710.97;5028239;28;20303;-79
2022/08/20 08:41:30;;;;;;;0.40;0.40;;;22.30;74.30;;;22.33;61.50;94710.44;5016230;28;20215;-78
2022/08/20 08:44:21;;;;;;;0.30;0.30;;;22.30;74.10;;;22.33;61.19;94726.47;5027045;28;20193;-79
2022/08/20 08:46:56;;;;;;;0.30;0.30;;;22.30;74.10;;;22.38;61.44;94723.00;5013157;28;20243;-78
2022/08/20 08:49:29;;;;;;;0.40;0.40;;;22.40;74.10;;;22.44;61.13;94713.91;4999837;28;20192;-79
2022/08/20 08:52:28;;;;;;;0.28;0.28;;;22.30;74.10;;;22.47;61.00;94717.91;5036062;28;20584;-79
2022/08/20 08:55:03;;;;;;;0.30;0.30;;;22.40;74.30;;;22.55;60.86;94720.81;5018358;28;20224;-79
2022/08/20 08:57:30;;;;;;;0.30;0.30;;;22.50;74.20;;;22.57;60.60;94722.41;4999201;28;20230;-79
2022/08/20 09:00:04;;;;;;;0.30;0.30;;;22.50;73.90;;;22.57;60.76;94717.88;5012970;28;20197;-79
2022/08/20 09:02:34;;;;;;;0.30;0.30;;;22.50;74.00;;;22.59;60.67;94717.59;4998634;28;20319;-78
2022/08/20 09:05:15;;;;;;;0.30;0.30;;;22.50;74.00;;;22.61;60.80;94721.59;5011477;28;20199;-79
2022/08/20 09:07:49;;;;;;;0.30;0.30;;;22.50;74.00;;;22.63;61.19;94714.13;5032997;28;20584;-79
2022/08/20 09:10:19;;;;;;;0.40;0.40;;;22.60;74.10;;;22.69;60.66;94717.56;5029117;28;20734;-80
2022/08/20 09:12:49;;;;;;;0.30;0.30;;;22.60;73.90;;;22.74;60.64;94717.56;5010759;28;20220;-79
2022/08/20 09:15:19;;;;;;;0.35;0.35;;;22.60;74.00;;;22.80;60.93;94713.78;5025713;28;20259;-80
2022/08/20 09:17:47;;;;;;;0.32;0.32;;;22.70;73.90;;;22.80;60.96;94707.63;5009957;28;20697;-79
2022/08/20 09:20:17;;;;;;;0.30;0.30;;;22.70;73.80;;;22.84;60.86;94724.75;5006532;28;20250;-79
2022/08/20 09:22:44;;;;;;;0.30;0.30;;;22.80;73.80;;;22.82;60.81;94716.97;5024053;28;20343;-78
2022/08/20 09:25:13;;;;;;;0.32;0.32;;;22.80;73.60;;;22.85;60.36;94718.28;5015440;28;20200;-80
2022/08/20 09:27:40;;;;;;;0.30;0.30;;;22.90;73.50;;;22.86;60.59;94710.03;4994375;28;20807;-79
2022/08/20 09:30:13;;;;;;;0.35;0.35;;;22.90;73.60;;;22.95;60.81;94714.78;5017506;28;20196;-79
2022/08/20 09:32:41;;;;;;;0.30;0.30;;;22.90;74.80;;;23.10;60.87;94711.25;4994804;28;20224;-80
2022/08/20 09:35:10;;;;;;;0.30;0.30;;;23.00;73.90;;;23.27;60.42;94716.25;4999085;28;20213;-79
2022/08/20 09:37:37;;;;;;;0.30;0.30;;;23.10;74.00;;;23.35;60.02;94718.31;5037604;28;20220;-79
2022/08/20 09:40:08;;;;;;;0.30;0.30;;;23.20;73.50;;;23.39;59.70;94719.41;5022532;28;20230;-80
2022/08/20 09:42:37;;;;;;;0.40;0.40;;;23.30;73.10;;;23.37;59.68;94723.44;5023438;28;20619;-79
2022/08/20 09:45:09;;;;;;;0.50;0.50;;;23.30;72.80;;;23.29;59.34;94722.13;5011363;28;20188;-79
2022/08/20 09:47:39;;;;;;;0.40;0.40;;;23.30;72.50;;;23.24;59.81;94712.25;5017491;28;20243;-78
2022/08/20 09:50:28;;;;;;;0.25;0.25;;;23.30;72.50;;;23.20;59.60;94721.91;5002038;28;20177;-78
2022/08/20 09:52:58;;;;;;;0.32;0.32;;;23.30;72.50;;;23.17;59.94;94719.78;5009368;28;20259;-79
2022/08/20 09:55:37;;;;;;;0.40;0.40;;;23.30;72.40;;;23.13;59.86;94726.72;5017270;28;20687;-79
2022/08/20 09:58:23;;;;;;;0.40;0.40;;;23.30;72.40;;;23.14;59.30;94725.66;5004662;28;20284;-79
2022/08/20 10:00:51;;;;;;;0.50;0.50;;;23.30;72.30;;;23.15;59.20;94725.38;5020250;28;20682;-79
2022/08/20 10:03:19;;;;;;;0.30;0.30;;;23.30;72.20;;;23.17;59.55;94727.81;4994586;28;20207;-80
2022/08/20 10:05:46;;;;;;;0.30;0.30;;;23.30;72.20;;;23.21;59.03;94736.88;5002592;28;20625;-79
2022/08/20 10:08:13;;;;;;;0.40;0.40;;;23.20;73.10;;;23.23;59.18;94731.25;5019788;28;20218;-80
2022/08/20 10:10:40;;;;;;;0.30;0.30;;;23.30;72.20;;;23.23;58.79;94729.38;5026606;28;20197;-79
2022/08/20 10:13:07;;;;;;;0.30;0.30;;;23.30;72.20;;;23.24;58.51;94730.19;5016799;28;20207;-80
2022/08/20 10:15:39;;;;;;;0.30;0.30;;;23.30;72.00;;;23.21;58.64;94755.63;5017692;28;20240;-79
2022/08/20 10:18:09;;;;;;;0.30;0.30;;;23.30;71.80;;;23.17;58.33;94755.38;5013132;28;20227;-78
2022/08/20 10:20:38;;;;;;;0.30;0.30;;;23.20;71.70;;;23.14;58.52;94755.09;4998973;28;20196;-78
2022/08/20 10:23:06;;;;;;;0.30;0.30;;;23.20;71.60;;;23.06;58.27;94747.63;5027318;28;20266;-78
2022/08/20 10:25:33;;;;;;;0.30;0.30;;;23.10;71.50;;;22.99;58.39;94754.06;5028370;28;20202;-79
2022/08/20 10:28:02;;;;;;;0.40;0.40;;;23.10;72.40;;;22.97;58.33;94755.44;5015212;28;20248;-78
2022/08/20 10:30:29;;;;;;;0.30;0.30;;;23.00;71.50;;;22.88;58.48;94741.81;5015215;28;20195;-79
2022/08/20 10:32:57;;;;;;;0.40;0.40;;;22.90;71.50;;;22.85;58.48;94756.56;5024913;28;20304;-79
2022/08/20 10:35:24;;;;;;;0.32;0.32;;;22.90;71.70;;;22.78;58.76;94745.34;5009947;28;20678;-79
2022/08/20 10:37:51;;;;;;;0.40;0.40;;;22.80;71.70;;;22.76;58.55;94752.03;5032677;28;20234;-79
2022/08/20 10:40:19;;;;;;;0.30;0.30;;;22.80;71.80;;;22.74;58.58;94754.19;5031844;28;20215;-79
2022/08/20 10:42:46;;;;;;;0.30;0.30;;;22.70;71.80;;;22.67;58.49;94754.47;5032437;28;20570;-79
2022/08/20 10:45:15;;;;;;;0.30;0.30;;;22.70;71.80;;;22.57;58.96;94757.97;5022383;28;20237;-79